Time;durP1;ratioP1;P1;durP2;ratioP2;P2;SDS_P1;SDS_P2;PMS_P1;PMS_P2;Temp;Humidity;BMP_temperature;BMP_pressure;BME280_temperature;BME280_humidity;BME280_pressure;Samples;Min_cycle;Max_cycle;Signal;HPM_P1;HPM_P2
2023/10/22 00:00:43;;;;;;;;;;;;;;;;;;4968867;28;19922;-83
2023/10/22 00:03:09;;;;;;;;;;;;;;;;;;4970063;28;20297;-84
2023/10/22 00:05:35;;;;;;;;;;;;;;;;;;4976858;28;19918;-84
2023/10/22 00:08:01;;;;;;;;;;;;;;;;;;4979154;28;19928;-84
2023/10/22 00:10:27;;;;;;;;;;;;;;;;;;4978210;28;19937;-84
2023/10/22 00:12:53;;;;;;;;;;;;;;;;;;4969205;28;19925;-84
2023/10/22 00:15:20;;;;;;;;;;;;;;;;;;4980794;28;19921;-84
2023/10/22 00:17:46;;;;;;;;;;;;;;;;;;4976376;28;19972;-84
2023/10/22 00:20:15;;;;;;;;;;;;;;;;;;4971724;28;20458;-83
2023/10/22 00:22:41;;;;;;;;;;;;;;;;;;4978829;28;19929;-84
2023/10/22 00:25:06;;;;;;;;;;;;;;;;;;4977195;28;19925;-84
2023/10/22 00:27:32;;;;;;;;;;;;;;;;;;4971960;28;19961;-84
2023/10/22 00:29:58;;;;;;;;;;;;;;;;;;4974301;28;19957;-84
2023/10/22 00:32:25;;;;;;;;;;;;;;;;;;4978509;28;20385;-84
2023/10/22 00:34:51;;;;;;;;;;;;;;;;;;4967951;28;20008;-83
2023/10/22 00:37:16;;;;;;;;;;;;;;;;;;4970057;28;19957;-84
2023/10/22 00:39:43;;;;;;;;;;;;;;;;;;4972803;28;19932;-83
2023/10/22 00:42:08;;;;;;;;;;;;;;;;;;4972916;28;20389;-84
2023/10/22 00:44:35;;;;;;;;;;;;;;;;;;4971422;28;19922;-84
2023/10/22 00:47:01;;;;;;;;;;;;;;;;;;4967657;28;19921;-83
2023/10/22 00:49:27;;;;;;;;;;;;;;;;;;4970537;28;20283;-83
2023/10/22 00:51:56;;;;;;;;;;;;;;;;;;4981812;28;19929;-83
2023/10/22 00:54:22;;;;;;;;;;;;;;;;;;4972556;28;20310;-84
2023/10/22 00:56:48;;;;;;;;;;;;;;;;;;4972835;28;19918;-84
2023/10/22 00:59:14;;;;;;;;;;;;;;;;;;4965845;28;19959;-84
2023/10/22 01:01:40;;;;;;;;;;;;;;;;;;4969058;28;20317;-84
2023/10/22 01:04:06;;;;;;;;;;;;;;;;;;4969430;28;19922;-84
2023/10/22 01:06:32;;;;;;;;;;;;;;;;;;4977735;28;20512;-84
2023/10/22 01:09:01;;;;;;;;;;;;;;;;;;4977493;28;19925;-83
2023/10/22 01:11:27;;;;;;;;;;;;;;;;;;4969031;28;19937;-83
2023/10/22 01:13:53;;;;;;;;;;;;;;;;;;4973090;28;19932;-84
2023/10/22 01:16:19;;;;;;;;;;;;;;;;;;4977153;28;20325;-84
2023/10/22 01:18:45;;;;;;;;;;;;;;;;;;4972836;28;20081;-84
2023/10/22 01:21:11;;;;;;;;;;;;;;;;;;4976638;28;20064;-84
2023/10/22 01:23:37;;;;;;;;;;;;;;;;;;4978582;28;19922;-84
2023/10/22 01:26:04;;;;;;;;;;;;;;;;;;4976380;28;19932;-84
2023/10/22 01:28:30;;;;;;;;;;;;;;;;;;4968281;28;19923;-83
2023/10/22 01:30:57;;;;;;;;;;;;;;;;;;4970537;28;19926;-83
2023/10/22 01:33:23;;;;;;;;;;;;;;;;;;4971394;28;20016;-83
2023/10/22 01:35:49;;;;;;;;;;;;;;;;;;4970955;28;20317;-83
2023/10/22 01:38:15;;;;;;;;;;;;;;;;;;4962950;28;19934;-84
2023/10/22 01:40:41;;;;;;;;;;;;;;;;;;4973223;28;19923;-83
2023/10/22 01:43:07;;;;;;;;;;;;;;;;;;4974834;28;19922;-83
2023/10/22 01:45:32;;;;;;;;;;;;;;;;;;4982238;28;19928;-83
2023/10/22 01:47:58;;;;;;;;;;;;;;;;;;4969659;28;19918;-83
2023/10/22 01:50:24;;;;;;;;;;;;;;;;;;4970420;28;19922;-83
2023/10/22 01:52:50;;;;;;;;;;;;;;;;;;4970047;28;20392;-83
2023/10/22 01:55:16;;;;;;;;;;;;;;;;;;4975093;28;20373;-83
2023/10/22 01:57:42;;;;;;;;;;;;;;;;;;4977225;28;19961;-84
2023/10/22 02:00:10;;;;;;;;;;;;;;;;;;4965917;28;20310;-83
2023/10/22 02:02:37;;;;;;;;;;;;;;;;;;4969034;28;19922;-84
2023/10/22 02:05:03;;;;;;;;;;;;;;;;;;4968776;28;19926;-84
2023/10/22 02:07:29;;;;;;;;;;;;;;;;;;4975032;28;19928;-84
2023/10/22 02:09:55;;;;;;;;;;;;;;;;;;4970081;28;19926;-84
2023/10/22 02:12:21;;;;;;;;;;;;;;;;;;4973758;28;20082;-84
2023/10/22 02:14:47;;;;;;;;;;;;;;;;;;4976621;28;19928;-83
2023/10/22 02:17:13;;;;;;;;;;;;;;;;;;4971332;28;20016;-84
2023/10/22 02:19:38;;;;;;;;;;;;;;;;;;4976359;28;19922;-84
2023/10/22 02:22:04;;;;;;;;;;;;;;;;;;4972675;28;19929;-83
2023/10/22 02:24:31;;;;;;;;;;;;;;;;;;4976273;28;20020;-84
2023/10/22 02:26:56;;;;;;;;;;;;;;;;;;4968593;28;20005;-84
2023/10/22 02:29:22;;;;;;;;;;;;;;;;;;4965098;28;20341;-83
2023/10/22 02:31:48;;;;;;;;;;;;;;;;;;4972479;28;19922;-84
2023/10/22 02:34:14;;;;;;;;;;;;;;;;;;4965703;28;19978;-84
2023/10/22 02:36:40;;;;;;;;;;;;;;;;;;4972146;28;19922;-84
2023/10/22 02:39:08;;;;;;;;;;;;;;;;;;4969300;28;20339;-84
2023/10/22 02:41:34;;;;;;;;;;;;;;;;;;4972111;28;19926;-84
2023/10/22 02:44:00;;;;;;;;;;;;;;;;;;4969131;28;19926;-84
2023/10/22 02:46:26;;;;;;;;;;;;;;;;;;4967508;28;19926;-84
2023/10/22 02:48:52;;;;;;;;;;;;;;;;;;4971749;28;19928;-84
2023/10/22 02:51:18;;;;;;;;;;;;;;;;;;4973326;28;19930;-84
2023/10/22 02:53:43;;;;;;;;;;;;;;;;;;4971506;28;19933;-84
2023/10/22 02:56:09;;;;;;;;;;;;;;;;;;4973758;28;19977;-85
2023/10/22 02:58:38;;;;;;;;;;;;;;;;;;4970008;28;19918;-84
2023/10/22 03:01:04;;;;;;;;;;;;;;;;;;4968285;28;19969;-83
2023/10/22 03:03:30;;;;;;;;;;;;;;;;;;4970370;28;20015;-84
2023/10/22 03:05:56;;;;;;;;;;;;;;;;;;4969634;28;19921;-84
2023/10/22 03:08:22;;;;;;;;;;;;;;;;;;4978352;28;20289;-85
2023/10/22 03:10:48;;;;;;;;;;;;;;;;;;4971742;28;19922;-84
2023/10/22 03:13:15;;;;;;;;;;;;;;;;;;4968756;28;20020;-84
2023/10/22 03:15:40;;;;;;;;;;;;;;;;;;4976819;28;19925;-84
2023/10/22 03:18:07;;;;;;;;;;;;;;;;;;4969690;28;20285;-84
2023/10/22 03:20:33;;;;;;;;;;;;;;;;;;4969054;28;19981;-84
2023/10/22 03:23:01;;;;;;;;;;;;;;;;;;4973967;28;20274;-84
2023/10/22 03:25:27;;;;;;;;;;;;;;;;;;4969692;28;19936;-84
2023/10/22 03:27:53;;;;;;;;;;;;;;;;;;4974967;28;19926;-83
2023/10/22 03:30:19;;;;;;;;;;;;;;;;;;4969699;28;19922;-84
2023/10/22 03:32:45;;;;;;;;;;;;;;;;;;4972300;28;19922;-84
2023/10/22 03:35:11;;;;;;;;;;;;;;;;;;4972324;28;19945;-85
2023/10/22 03:37:37;;;;;;;;;;;;;;;;;;4972059;28;20004;-84
2023/10/22 03:40:03;;;;;;;;;;;;;;;;;;4971330;28;20365;-84
2023/10/22 03:42:29;;;;;;;;;;;;;;;;;;4985014;28;20053;-84
2023/10/22 03:44:55;;;;;;;;;;;;;;;;;;4970744;28;19997;-84
2023/10/22 03:47:21;;;;;;;;;;;;;;;;;;4973080;28;19922;-84
2023/10/22 03:49:47;;;;;;;;;;;;;;;;;;4977603;28;19953;-85
2023/10/22 03:52:13;;;;;;;;;;;;;;;;;;4968625;28;19922;-85
2023/10/22 03:54:39;;;;;;;;;;;;;;;;;;4973257;28;19926;-85
2023/10/22 03:57:06;;;;;;;;;;;;;;;;;;4973572;28;20100;-85
2023/10/22 03:59:33;;;;;;;;;;;;;;;;;;4971657;28;19966;-84
2023/10/22 04:02:00;;;;;;;;;;;;;;;;;;4968757;28;20371;-84
2023/10/22 04:04:25;;;;;;;;;;;;;;;;;;4973455;28;19922;-84
2023/10/22 04:06:51;;;;;;;;;;;;;;;;;;4974080;28;20393;-84
2023/10/22 04:09:17;;;;;;;;;;;;;;;;;;4973238;28;20340;-84
2023/10/22 04:11:43;;;;;;;;;;;;;;;;;;4972007;28;19930;-84
2023/10/22 04:14:09;;;;;;;;;;;;;;;;;;4980981;28;19918;-85
2023/10/22 04:16:35;;;;;;;;;;;;;;;;;;4967566;28;20366;-84
2023/10/22 04:19:01;;;;;;;;;;;;;;;;;;4977823;28;19922;-85
2023/10/22 04:21:27;;;;;;;;;;;;;;;;;;4976153;28;19937;-84
2023/10/22 04:23:53;;;;;;;;;;;;;;;;;;4976536;28;19929;-84
2023/10/22 04:26:19;;;;;;;;;;;;;;;;;;4964537;28;19961;-84
2023/10/22 04:28:46;;;;;;;;;;;;;;;;;;4971430;28;19995;-85
2023/10/22 04:31:12;;;;;;;;;;;;;;;;;;4970351;28;19922;-85
2023/10/22 04:33:38;;;;;;;;;;;;;;;;;;4979393;28;19932;-84
2023/10/22 04:36:03;;;;;;;;;;;;;;;;;;4975623;28;19940;-84
2023/10/22 04:38:30;;;;;;;;;;;;;;;;;;4971385;28;19934;-85
2023/10/22 04:40:56;;;;;;;;;;;;;;;;;;4970308;28;19921;-85
2023/10/22 04:43:22;;;;;;;;;;;;;;;;;;4977411;28;19968;-83
2023/10/22 04:45:48;;;;;;;;;;;;;;;;;;4970276;28;20638;-83
2023/10/22 04:48:13;;;;;;;;;;;;;;;;;;4972032;28;19922;-84
2023/10/22 04:50:41;;;;;;;;;;;;;;;;;;4971981;28;20413;-83
2023/10/22 04:53:07;;;;;;;;;;;;;;;;;;4971889;28;19969;-82
2023/10/22 04:55:32;;;;;;;;;;;;;;;;;;4969312;28;19970;-82
2023/10/22 04:58:00;;;;;;;;;;;;;;;;;;4973498;28;19965;-84
2023/10/22 05:00:26;;;;;;;;;;;;;;;;;;4971143;28;19980;-83
2023/10/22 05:02:52;;;;;;;;;;;;;;;;;;4965054;28;19922;-83
2023/10/22 05:05:20;;;;;;;;;;;;;;;;;;4970881;28;19977;-83
2023/10/22 05:07:46;;;;;;;;;;;;;;;;;;4971190;28;20001;-83
2023/10/22 05:10:13;;;;;;;;;;;;;;;;;;4971596;28;20012;-82
2023/10/22 05:12:39;;;;;;;;;;;;;;;;;;4968519;28;19922;-82
2023/10/22 05:15:05;;;;;;;;;;;;;;;;;;4967610;28;19926;-83
2023/10/22 05:17:31;;;;;;;;;;;;;;;;;;4973109;28;19922;-83
2023/10/22 05:19:57;;;;;;;;;;;;;;;;;;4973659;28;19917;-82
2023/10/22 05:22:23;;;;;;;;;;;;;;;;;;4968578;28;20589;-83
2023/10/22 05:24:49;;;;;;;;;;;;;;;;;;4982687;28;19925;-84
2023/10/22 05:27:16;;;;;;;;;;;;;;;;;;4972946;28;20360;-82
2023/10/22 05:29:42;;;;;;;;;;;;;;;;;;4969763;28;20776;-82
2023/10/22 05:32:08;;;;;;;;;;;;;;;;;;4968061;28;19922;-83
2023/10/22 05:34:34;;;;;;;;;;;;;;;;;;4981076;28;19926;-83
2023/10/22 05:37:00;;;;;;;;;;;;;;;;;;4967690;28;19926;-83
2023/10/22 05:39:26;;;;;;;;;;;;;;;;;;4982379;28;19996;-85
2023/10/22 05:41:52;;;;;;;;;;;;;;;;;;4966799;28;20405;-82
2023/10/22 05:44:19;;;;;;;;;;;;;;;;;;4980547;28;19921;-84
2023/10/22 05:46:44;;;;;;;;;;;;;;;;;;4977788;28;20365;-83
2023/10/22 05:49:11;;;;;;;;;;;;;;;;;;4966926;28;20028;-83
2023/10/22 05:51:38;;;;;;;;;;;;;;;;;;4973947;28;20061;-84
2023/10/22 05:54:04;;;;;;;;;;;;;;;;;;4975031;28;19975;-83
2023/10/22 05:56:30;;;;;;;;;;;;;;;;;;4972786;28;19930;-84
2023/10/22 05:58:56;;;;;;;;;;;;;;;;;;4977814;28;20286;-86
2023/10/22 06:01:22;;;;;;;;;;;;;;;;;;4972373;28;20394;-82
2023/10/22 06:03:51;;;;;;;;;;;;;;;;;;4973645;28;19930;-83
2023/10/22 06:06:17;;;;;;;;;;;;;;;;;;4967801;28;19966;-84
2023/10/22 06:08:43;;;;;;;;;;;;;;;;;;4970271;28;20851;-82
2023/10/22 06:11:09;;;;;;;;;;;;;;;;;;4970783;28;20408;-84
2023/10/22 06:13:35;;;;;;;;;;;;;;;;;;4970899;28;19972;-83
2023/10/22 06:16:01;;;;;;;;;;;;;;;;;;4977083;28;20057;-83
2023/10/22 06:18:27;;;;;;;;;;;;;;;;;;4967231;28;20157;-82
2023/10/22 06:20:52;;;;;;;;;;;;;;;;;;4969375;28;19928;-82
2023/10/22 06:23:18;;;;;;;;;;;;;;;;;;4970752;28;19929;-82
2023/10/22 06:25:44;;;;;;;;;;;;;;;;;;4972935;28;19930;-83
2023/10/22 06:28:11;;;;;;;;;;;;;;;;;;4970332;28;20025;-82
2023/10/22 06:30:37;;;;;;;;;;;;;;;;;;4970987;28;20334;-83
2023/10/22 06:33:03;;;;;;;;;;;;;;;;;;4967508;28;19922;-84
2023/10/22 06:35:32;;;;;;;;;;;;;;;;;;4973379;28;19926;-82
2023/10/22 06:37:58;;;;;;;;;;;;;;;;;;4971955;28;19977;-82
2023/10/22 06:40:24;;;;;;;;;;;;;;;;;;4967931;28;19926;-83
2023/10/22 06:42:50;;;;;;;;;;;;;;;;;;4980692;28;19928;-84
2023/10/22 06:45:16;;;;;;;;;;;;;;;;;;4971246;28;19922;-83
2023/10/22 06:47:46;;;;;;;;;;;;;;;;;;4978339;28;19926;-82
2023/10/22 06:50:13;;;;;;;;;;;;;;;;;;4972364;28;19930;-82
2023/10/22 06:52:39;;;;;;;;;;;;;;;;;;4972895;28;19922;-83
2023/10/22 06:55:05;;;;;;;;;;;;;;;;;;4972908;28;20086;-83
2023/10/22 06:57:31;;;;;;;;;;;;;;;;;;4973113;28;19976;-83
2023/10/22 06:59:57;;;;;;;;;;;;;;;;;;4975106;28;20350;-83
2023/10/22 07:02:23;;;;;;;;;;;;;;;;;;4971098;28;19922;-83
2023/10/22 07:04:49;;;;;;;;;;;;;;;;;;4973379;28;19928;-83
2023/10/22 07:07:14;;;;;;;;;;;;;;;;;;4975993;28;20106;-83
2023/10/22 07:09:40;;;;;;;;;;;;;;;;;;4971932;28;19926;-84
2023/10/22 07:12:06;;;;;;;;;;;;;;;;;;4960832;28;19928;-82
2023/10/22 07:14:32;;;;;;;;;;;;;;;;;;4973708;28;19961;-84
2023/10/22 07:16:58;;;;;;;;;;;;;;;;;;4968743;28;19965;-83
2023/10/22 07:19:24;;;;;;;;;;;;;;;;;;4973605;28;20008;-82
2023/10/22 07:21:50;;;;;;;;;;;;;;;;;;4977861;28;19925;-82
2023/10/22 07:24:16;;;;;;;;;;;;;;;;;;4974680;28;19933;-82
2023/10/22 07:26:42;;;;;;;;;;;;;;;;;;4976581;28;19918;-81
2023/10/22 07:29:08;;;;;;;;;;;;;;;;;;4973634;28;19922;-82
2023/10/22 07:31:34;;;;;;;;;;;;;;;;;;4971110;28;19925;-81
2023/10/22 07:34:00;;;;;;;;;;;;;;;;;;4973449;28;19921;-81
2023/10/22 07:36:25;;;;;;;;;;;;;;;;;;4972148;28;20301;-82
2023/10/22 07:38:52;;;;;;;;;;;;;;;;;;4973353;28;19922;-80
2023/10/22 07:41:19;;;;;;;;;;;;;;;;;;4970664;28;19922;-87
2023/10/22 07:43:45;;;;;;;;;;;;;;;;;;4970968;28;20067;-89
2023/10/22 07:46:11;;;;;;;;;;;;;;;;;;4974632;28;19929;-86
2023/10/22 07:48:37;;;;;;;;;;;;;;;;;;4969533;28;19922;-86
2023/10/22 07:51:03;;;;;;;;;;;;;;;;;;4987059;28;19922;-85
2023/10/22 07:53:29;;;;;;;;;;;;;;;;;;4972444;28;19965;-82
2023/10/22 07:55:55;;;;;;;;;;;;;;;;;;4974872;28;19965;-81
2023/10/22 07:58:21;;;;;;;;;;;;;;;;;;4975584;28;19957;-80
2023/10/22 08:00:53;;;;;;;;;;;;;;;;;;4972133;28;19980;-80
2023/10/22 08:03:19;;;;;;;;;;;;;;;;;;4969340;28;20113;-80
2023/10/22 08:05:45;;;;;;;;;;;;;;;;;;4982849;28;20064;-80
2023/10/22 08:08:11;;;;;;;;;;;;;;;;;;4973643;28;20091;-82
2023/10/22 08:10:37;;;;;;;;;;;;;;;;;;4971806;28;19949;-85
2023/10/22 08:13:02;;;;;;;;;;;;;;;;;;4972568;28;19922;-81
2023/10/22 08:15:28;;;;;;;;;;;;;;;;;;4973676;28;19926;-83
2023/10/22 08:17:54;;;;;;;;;;;;;;;;;;4979770;28;19937;-82
2023/10/22 08:20:20;;;;;;;;;;;;;;;;;;4970981;28;19926;-85
2023/10/22 08:22:49;;;;;;;;;;;;;;;;;;4971092;28;19922;-80
2023/10/22 08:25:15;;;;;;;;;;;;;;;;;;4969440;28;19926;-82
2023/10/22 08:27:41;;;;;;;;;;;;;;;;;;4968093;28;19929;-83
2023/10/22 08:30:10;;;;;;;;;;;;;;;;;;4966965;28;19981;-82
2023/10/22 08:32:37;;;;;;;;;;;;;;;;;;4968345;28;21878;-83
2023/10/22 08:35:03;;;;;;;;;;;;;;;;;;4974809;28;20358;-83
2023/10/22 08:37:29;;;;;;;;;;;;;;;;;;4979186;28;19932;-80
2023/10/22 08:39:55;;;;;;;;;;;;;;;;;;4973797;28;19921;-86
2023/10/22 08:42:21;;;;;;;;;;;;;;;;;;4978553;28;19921;-85
2023/10/22 08:44:52;;;;;;;;;;;;;;;;;;4977207;28;19972;-85
2023/10/22 08:47:17;;;;;;;;;;;;;;;;;;4958008;28;19932;-85
2023/10/22 08:49:44;;;;;;;;;;;;;;;;;;4961570;28;19922;-83
2023/10/22 08:52:10;;;;;;;;;;;;;;;;;;4963142;28;20296;-82
2023/10/22 08:54:37;;;;;;;;;;;;;;;;;;4963054;28;20308;-83
2023/10/22 08:57:03;;;;;;;;;;;;;;;;;;4966709;28;20574;-86
2023/10/22 08:59:29;;;;;;;;;;;;;;;;;;4970481;28;19984;-82
2023/10/22 09:01:55;;;;;;;;;;;;;;;;;;4968334;28;19928;-82
2023/10/22 09:04:21;;;;;;;;;;;;;;;;;;4976212;28;20298;-81
2023/10/22 09:06:46;;;;;;;;;;;;;;;;;;4975337;28;19924;-83
2023/10/22 09:09:12;;;;;;;;;;;;;;;;;;4968737;28;19922;-82
2023/10/22 09:11:38;;;;;;;;;;;;;;;;;;4970174;28;20382;-82
2023/10/22 09:14:04;;;;;;;;;;;;;;;;;;4969429;28;19937;-82
2023/10/22 09:16:41;;;;;;;;;;;;;;;;;;4968042;28;19933;-82
2023/10/22 09:19:07;;;;;;;;;;;;;;;;;;4973249;28;19977;-81
2023/10/22 09:21:33;;;;;;;;;;;;;;;;;;4959575;28;19979;-82
2023/10/22 09:23:59;;;;;;;;;;;;;;;;;;4981859;28;20024;-82
2023/10/22 09:26:24;;;;;;;;;;;;;;;;;;4969865;28;20018;-83
2023/10/22 09:28:50;;;;;;;;;;;;;;;;;;4970004;28;20429;-81
2023/10/22 09:31:17;;;;;;;;;;;;;;;;;;4968093;28;19981;-81
2023/10/22 09:33:42;;;;;;;;;;;;;;;;;;4973031;28;19980;-82
2023/10/22 09:36:08;;;;;;;;;;;;;;;;;;4978219;28;20011;-82
2023/10/22 09:38:34;;;;;;;;;;;;;;;;;;4992617;28;19926;-82
2023/10/22 09:41:03;;;;;;;;;;;;;;;;;;4972715;28;19922;-80
2023/10/22 09:43:29;;;;;;;;;;;;;;;;;;4973568;28;20348;-82
2023/10/22 09:45:55;;;;;;;;;;;;;;;;;;4972018;28;20362;-82
2023/10/22 09:48:21;;;;;;;;;;;;;;;;;;4968695;28;19929;-82
2023/10/22 09:50:46;;;;;;;;;;;;;;;;;;4975379;28;19968;-82
2023/10/22 09:53:12;;;;;;;;;;;;;;;;;;4967882;28;19972;-81
2023/10/22 09:55:38;;;;;;;;;;;;;;;;;;4972469;28;20852;-82
2023/10/22 09:58:04;;;;;;;;;;;;;;;;;;4973757;28;19980;-82
2023/10/22 10:00:30;;;;;;;;;;;;;;;;;;4972565;28;20382;-81
2023/10/22 10:02:57;;;;;;;;;;;;;;;;;;4973117;28;19929;-82
2023/10/22 10:05:23;;;;;;;;;;;;;;;;;;4973725;28;19925;-82
2023/10/22 10:07:49;;;;;;;;;;;;;;;;;;4968609;28;20293;-82
2023/10/22 10:10:14;;;;;;;;;;;;;;;;;;4966085;28;20706;-82
2023/10/22 10:12:40;;;;;;;;;;;;;;;;;;4965450;28;19922;-81
2023/10/22 10:15:06;;;;;;;;;;;;;;;;;;4969452;28;19961;-79
2023/10/22 10:17:32;;;;;;;;;;;;;;;;;;4971360;28;19922;-80
2023/10/22 10:19:58;;;;;;;;;;;;;;;;;;4970018;28;19929;-80
2023/10/22 10:22:24;;;;;;;;;;;;;;;;;;4967114;28;19926;-78
2023/10/22 10:24:50;;;;;;;;;;;;;;;;;;4966353;28;19930;-82
2023/10/22 10:27:16;;;;;;;;;;;;;;;;;;4975859;28;19973;-82
2023/10/22 10:29:43;;;;;;;;;;;;;;;;;;4978154;28;20514;-82
2023/10/22 10:32:08;;;;;;;;;;;;;;;;;;4968326;28;20297;-83
2023/10/22 10:34:34;;;;;;;;;;;;;;;;;;4969093;28;19927;-83
2023/10/22 10:37:00;;;;;;;;;;;;;;;;;;4970034;28;19929;-83
2023/10/22 10:39:26;;;;;;;;;;;;;;;;;;4966964;28;19929;-83
2023/10/22 10:41:52;;;;;;;;;;;;;;;;;;4968134;28;19922;-82
2023/10/22 10:44:18;;;;;;;;;;;;;;;;;;4963574;28;19929;-82
2023/10/22 10:46:44;;;;;;;;;;;;;;;;;;4964055;28;20285;-82
2023/10/22 10:49:10;;;;;;;;;;;;;;;;;;4967941;28;19922;-82
2023/10/22 10:51:36;;;;;;;;;;;;;;;;;;4968313;28;20386;-82
2023/10/22 10:54:12;;;;;;;;;;;;;;;;;;4965406;28;19933;-82
2023/10/22 10:56:38;;;;;;;;;;;;;;;;;;4970385;28;19922;-81
2023/10/22 10:59:04;;;;;;;;;;;;;;;;;;4967698;28;19926;-82
2023/10/22 11:01:30;;;;;;;;;;;;;;;;;;4966145;28;19933;-82
2023/10/22 11:03:56;;;;;;;;;;;;;;;;;;4967310;28;19929;-82
2023/10/22 11:06:22;;;;;;;;;;;;;;;;;;4968371;28;19926;-81
2023/10/22 11:08:48;;;;;;;;;;;;;;;;;;4970225;28;19966;-82
2023/10/22 11:11:14;;;;;;;;;;;;;;;;;;4970522;28;20370;-85
2023/10/22 11:13:41;;;;;;;;;;;;;;;;;;4962685;28;20021;-83
2023/10/22 11:16:07;;;;;;;;;;;;;;;;;;4969758;28;19922;-82
2023/10/22 11:18:33;;;;;;;;;;;;;;;;;;4970183;28;20000;-82
2023/10/22 11:20:59;;;;;;;;;;;;;;;;;;4969211;28;19972;-81
2023/10/22 11:23:25;;;;;;;;;;;;;;;;;;4966365;28;20028;-82
2023/10/22 11:25:51;;;;;;;;;;;;;;;;;;4969802;28;19922;-82
2023/10/22 11:28:17;;;;;;;;;;;;;;;;;;4968865;28;19927;-82
2023/10/22 11:30:43;;;;;;;;;;;;;;;;;;4972555;28;20089;-82
2023/10/22 11:33:10;;;;;;;;;;;;;;;;;;4972337;28;19922;-82
2023/10/22 11:35:37;;;;;;;;;;;;;;;;;;4971724;28;19921;-82
2023/10/22 11:38:03;;;;;;;;;;;;;;;;;;4974726;28;19922;-82
2023/10/22 11:40:29;;;;;;;;;;;;;;;;;;4973028;28;20380;-81
2023/10/22 11:42:55;;;;;;;;;;;;;;;;;;4970583;28;19999;-82
2023/10/22 11:45:21;;;;;;;;;;;;;;;;;;4974381;28;19922;-82
2023/10/22 11:47:47;;;;;;;;;;;;;;;;;;4971479;28;19922;-82
2023/10/22 11:50:16;;;;;;;;;;;;;;;;;;4972688;28;19929;-82
2023/10/22 11:52:42;;;;;;;;;;;;;;;;;;4972275;28;19929;-81
2023/10/22 11:55:09;;;;;;;;;;;;;;;;;;4970302;28;19930;-82
2023/10/22 11:57:35;;;;;;;;;;;;;;;;;;4974963;28;19926;-82
2023/10/22 12:00:00;;;;;;;;;;;;;;;;;;4972505;28;20288;-82
2023/10/22 12:02:26;;;;;;;;;;;;;;;;;;4973213;28;19928;-81
2023/10/22 12:04:52;;;;;;;;;;;;;;;;;;4974337;28;19926;-82
2023/10/22 12:07:18;;;;;;;;;;;;;;;;;;4986048;28;20267;-82
2023/10/22 12:09:45;;;;;;;;;;;;;;;;;;4971784;28;19997;-82
2023/10/22 12:12:11;;;;;;;;;;;;;;;;;;4971775;28;19922;-82
2023/10/22 12:14:39;;;;;;;;;;;;;;;;;;4974329;28;19937;-82
2023/10/22 12:17:05;;;;;;;;;;;;;;;;;;4968926;28;19930;-82
2023/10/22 12:19:31;;;;;;;;;;;;;;;;;;4968306;28;20334;-82
2023/10/22 12:21:56;;;;;;;;;;;;;;;;;;4973559;28;20359;-82
2023/10/22 12:24:22;;;;;;;;;;;;;;;;;;4970108;28;20004;-82
2023/10/22 12:26:48;;;;;;;;;;;;;;;;;;4967416;28;20017;-82
2023/10/22 12:29:14;;;;;;;;;;;;;;;;;;4970362;28;20420;-82
2023/10/22 12:31:41;;;;;;;;;;;;;;;;;;4971573;28;19922;-82
2023/10/22 12:34:07;;;;;;;;;;;;;;;;;;4964468;28;19922;-82
2023/10/22 12:36:32;;;;;;;;;;;;;;;;;;4965956;28;19976;-82
2023/10/22 12:38:58;;;;;;;;;;;;;;;;;;4971960;28;19917;-82
2023/10/22 12:41:24;;;;;;;;;;;;;;;;;;4975074;28;19933;-82
2023/10/22 12:43:50;;;;;;;;;;;;;;;;;;4969661;28;19922;-82
2023/10/22 12:46:17;;;;;;;;;;;;;;;;;;4972563;28;20100;-82
2023/10/22 12:48:43;;;;;;;;;;;;;;;;;;4974107;28;19922;-82
2023/10/22 12:51:09;;;;;;;;;;;;;;;;;;4968754;28;19929;-82
2023/10/22 12:53:34;;;;;;;;;;;;;;;;;;4955494;28;20024;-82
2023/10/22 12:56:00;;;;;;;;;;;;;;;;;;4974324;28;19922;-82
2023/10/22 12:58:27;;;;;;;;;;;;;;;;;;4973118;28;19917;-82
2023/10/22 13:00:53;;;;;;;;;;;;;;;;;;4972523;28;19926;-82
2023/10/22 13:03:19;;;;;;;;;;;;;;;;;;4973148;28;20236;-82
2023/10/22 13:05:45;;;;;;;;;;;;;;;;;;4972434;28;20296;-82
2023/10/22 13:08:12;;;;;;;;;;;;;;;;;;4974744;28;19925;-82
2023/10/22 13:10:38;;;;;;;;;;;;;;;;;;4973537;28;20349;-82
2023/10/22 13:13:04;;;;;;;;;;;;;;;;;;4967153;28;19945;-82
2023/10/22 13:15:30;;;;;;;;;;;;;;;;;;4973275;28;20038;-82
2023/10/22 13:17:56;;;;;;;;;;;;;;;;;;4973208;28;19964;-82
2023/10/22 13:20:22;;;;;;;;;;;;;;;;;;4973717;28;19931;-82
2023/10/22 13:22:48;;;;;;;;;;;;;;;;;;4970634;28;19937;-82
2023/10/22 13:25:13;;;;;;;;;;;;;;;;;;4972872;28;19926;-82
2023/10/22 13:27:39;;;;;;;;;;;;;;;;;;4972563;28;20271;-83
2023/10/22 13:30:05;;;;;;;;;;;;;;;;;;4972803;28;19933;-83
2023/10/22 13:32:31;;;;;;;;;;;;;;;;;;4970581;28;20289;-82
2023/10/22 13:34:57;;;;;;;;;;;;;;;;;;4972037;28;20012;-83
2023/10/22 13:37:23;;;;;;;;;;;;;;;;;;4972804;28;20022;-83
2023/10/22 13:39:49;;;;;;;;;;;;;;;;;;4972941;28;20025;-83
2023/10/22 13:42:15;;;;;;;;;;;;;;;;;;4971487;28;20016;-83
2023/10/22 13:44:43;;;;;;;;;;;;;;;;;;4974627;28;19935;-83
2023/10/22 13:47:10;;;;;;;;;;;;;;;;;;4972889;28;19921;-83
2023/10/22 13:49:36;;;;;;;;;;;;;;;;;;4972482;28;20013;-83
2023/10/22 13:52:03;;;;;;;;;;;;;;;;;;4987977;28;20009;-83
2023/10/22 13:54:29;;;;;;;;;;;;;;;;;;4973088;28;19926;-83
2023/10/22 13:56:55;;;;;;;;;;;;;;;;;;4963786;28;19992;-83
2023/10/22 13:59:21;;;;;;;;;;;;;;;;;;4973514;28;20386;-83
2023/10/22 14:01:47;;;;;;;;;;;;;;;;;;4972184;28;19922;-82
2023/10/22 14:04:13;;;;;;;;;;;;;;;;;;4971927;28;19925;-82
2023/10/22 14:06:39;;;;;;;;;;;;;;;;;;4972233;28;19922;-82
2023/10/22 14:09:05;;;;;;;;;;;;;;;;;;4971687;28;19929;-83
2023/10/22 14:11:31;;;;;;;;;;;;;;;;;;4971842;28;19973;-83
2023/10/22 14:13:58;;;;;;;;;;;;;;;;;;4972323;28;20385;-83
2023/10/22 14:16:24;;;;;;;;;;;;;;;;;;4971461;28;19922;-83
2023/10/22 14:18:50;;;;;;;;;;;;;;;;;;4973703;28;19929;-82
2023/10/22 14:21:16;;;;;;;;;;;;;;;;;;4971924;28;20377;-82
2023/10/22 14:23:42;;;;;;;;;;;;;;;;;;4971202;28;20381;-82
2023/10/22 14:26:08;;;;;;;;;;;;;;;;;;4972104;28;19929;-82
2023/10/22 14:28:34;;;;;;;;;;;;;;;;;;4973033;28;20426;-83
2023/10/22 14:31:00;;;;;;;;;;;;;;;;;;4987717;28;19925;-83
2023/10/22 14:33:26;;;;;;;;;;;;;;;;;;4971292;28;20024;-83
2023/10/22 14:35:51;;;;;;;;;;;;;;;;;;4974027;28;19954;-82
2023/10/22 14:38:17;;;;;;;;;;;;;;;;;;4972697;28;19922;-83
2023/10/22 14:40:43;;;;;;;;;;;;;;;;;;4971630;28;19922;-82
2023/10/22 14:43:09;;;;;;;;;;;;;;;;;;4971918;28;19922;-83
2023/10/22 14:45:44;;;;;;;;;;;;;;;;;;4971758;28;20290;-82
2023/10/22 14:48:13;;;;;;;;;;;;;;;;;;4971631;28;19929;-82
2023/10/22 14:50:39;;;;;;;;;;;;;;;;;;4970553;28;19977;-82
2023/10/22 14:53:05;;;;;;;;;;;;;;;;;;4973444;28;19922;-82
2023/10/22 14:55:31;;;;;;;;;;;;;;;;;;4973095;28;20362;-82
2023/10/22 14:57:57;;;;;;;;;;;;;;;;;;4971789;28;19977;-82
2023/10/22 15:00:23;;;;;;;;;;;;;;;;;;4972563;28;19926;-82
2023/10/22 15:02:49;;;;;;;;;;;;;;;;;;4973723;28;19922;-82
2023/10/22 15:05:15;;;;;;;;;;;;;;;;;;4976489;28;20321;-82
2023/10/22 15:07:41;;;;;;;;;;;;;;;;;;4975649;28;20378;-82
2023/10/22 15:10:09;;;;;;;;;;;;;;;;;;4975356;28;20012;-83
2023/10/22 15:12:35;;;;;;;;;;;;;;;;;;4975919;28;19933;-83
2023/10/22 15:15:01;;;;;;;;;;;;;;;;;;4976537;28;19926;-82
2023/10/22 15:17:27;;;;;;;;;;;;;;;;;;4975609;28;20278;-82
2023/10/22 15:19:53;;;;;;;;;;;;;;;;;;4974115;28;19961;-82
2023/10/22 15:22:19;;;;;;;;;;;;;;;;;;4976160;28;19980;-82
2023/10/22 15:24:46;;;;;;;;;;;;;;;;;;4963382;28;19970;-81
2023/10/22 15:27:12;;;;;;;;;;;;;;;;;;4971841;28;20294;-82
2023/10/22 15:29:38;;;;;;;;;;;;;;;;;;4974693;28;19922;-82
2023/10/22 15:32:04;;;;;;;;;;;;;;;;;;4974702;28;20282;-82
2023/10/22 15:34:30;;;;;;;;;;;;;;;;;;4974930;28;19926;-82
2023/10/22 15:36:56;;;;;;;;;;;;;;;;;;4974527;28;19922;-82
2023/10/22 15:39:22;;;;;;;;;;;;;;;;;;4974653;28;19925;-82
2023/10/22 15:41:47;;;;;;;;;;;;;;;;;;4974408;28;19922;-82
2023/10/22 15:44:13;;;;;;;;;;;;;;;;;;4972476;28;19929;-82
2023/10/22 15:46:39;;;;;;;;;;;;;;;;;;4972428;28;19922;-82
2023/10/22 15:49:05;;;;;;;;;;;;;;;;;;4960003;28;19922;-82
2023/10/22 15:51:31;;;;;;;;;;;;;;;;;;4990530;28;19922;-82
2023/10/22 15:53:57;;;;;;;;;;;;;;;;;;4974353;28;19992;-82
2023/10/22 15:56:23;;;;;;;;;;;;;;;;;;4974516;28;20362;-82
2023/10/22 15:58:55;;;;;;;;;;;;;;;;;;4976218;28;19922;-82
2023/10/22 16:01:21;;;;;;;;;;;;;;;;;;4974911;28;19926;-81
2023/10/22 16:03:47;;;;;;;;;;;;;;;;;;4972794;28;19922;-81
2023/10/22 16:06:13;;;;;;;;;;;;;;;;;;4974017;28;19926;-81
2023/10/22 16:08:39;;;;;;;;;;;;;;;;;;4973563;28;19922;-81
2023/10/22 16:11:05;;;;;;;;;;;;;;;;;;4991007;28;19964;-82
2023/10/22 16:13:31;;;;;;;;;;;;;;;;;;4971772;28;19926;-82
2023/10/22 16:15:57;;;;;;;;;;;;;;;;;;4953822;28;20309;-81
2023/10/22 16:18:23;;;;;;;;;;;;;;;;;;4958560;28;19929;-81
2023/10/22 16:20:49;;;;;;;;;;;;;;;;;;4968833;28;19926;-79
2023/10/22 16:23:15;;;;;;;;;;;;;;;;;;4966156;28;19937;-79
2023/10/22 16:25:40;;;;;;;;;;;;;;;;;;4972792;28;19977;-79
2023/10/22 16:28:06;;;;;;;;;;;;;;;;;;4973816;28;19922;-79
2023/10/22 16:30:32;;;;;;;;;;;;;;;;;;4971709;28;19926;-79
2023/10/22 16:32:58;;;;;;;;;;;;;;;;;;4972768;28;19922;-79
2023/10/22 16:35:24;;;;;;;;;;;;;;;;;;4970802;28;19929;-80
2023/10/22 16:37:50;;;;;;;;;;;;;;;;;;4957077;28;19957;-79